»·PEaware :: N38G KOTH-KPDX

N38G :: KOTH-KPDX

FLIGHT INFORMATION

Flight Status: Arrived
Operator: Privately registered:
United States
More flights under this callsign
Pilot: Guilherme R. (33109)
Aircraft: Cessna 525C Citation CJ4
(C25C)
More flights by this aircraft type
Origin: KOTH North Bend Mun
United States
Destination: KPDX Portland Intl
United States
More flights between these airports :: More routes between these airports
Route: OTH7 RARES V287 UBG BTG
File this flight plan on PilotEdge
Remarks: RMK / SIMBRIEF
Altitude:
(Current/Filed)
29,000ft
Speed:
(Current/Filed)
451kts
Departed: 13-Jan-22 02:45 PM
Arrived: 13-Jan-22 03:25 PM
Distance/Time
Traveled:
148nm/0:40
Distance/Time
To Go:
Arrived

Flight Plot

Page will automatically refresh every two minutes.

Flight plan parsing failed; only flown route is shown


Map Options




Map Legend


Flown Route
Filed Route
Departure Airport
Arrival Airport
Navaid (VOR, NDB)
Fix

Horizontal Profiles

Position Reports

Time Latitude Longitude Heading Altitude Ground
Speed
13-Jan-22 14:25 43.415467 -124.245475 227 17ft 0kts
13-Jan-22 14:26 43.415467 -124.245475 227 17ft 0kts
13-Jan-22 14:27 43.415467 -124.245475 227 17ft 0kts
13-Jan-22 14:28 43.415467 -124.245475 227 17ft 0kts
13-Jan-22 14:28 43.415467 -124.245475 227 17ft 0kts
13-Jan-22 14:30 43.415467 -124.245475 227 17ft 0kts
13-Jan-22 14:31 43.415467 -124.245475 227 17ft 0kts
13-Jan-22 14:32 43.415467 -124.245475 227 17ft 0kts
13-Jan-22 14:33 43.415467 -124.245475 227 17ft 0kts
13-Jan-22 14:34 43.415467 -124.245475 227 17ft 0kts
13-Jan-22 14:35 43.415467 -124.245475 227 17ft 0kts
13-Jan-22 14:35 43.415467 -124.245475 227 17ft 0kts
13-Jan-22 14:36 43.415467 -124.245475 227 17ft 0kts
13-Jan-22 14:37 43.415467 -124.245475 227 17ft 0kts
13-Jan-22 14:39 43.415467 -124.245475 227 17ft 0kts
13-Jan-22 14:39 43.415968 -124.245467 357 17ft 13kts
13-Jan-22 14:41 43.420300 -124.243986 59 16ft 30kts
13-Jan-22 14:41 43.421780 -124.240587 344 15ft 0kts
13-Jan-22 14:42 43.421780 -124.240587 344 15ft 0kts
13-Jan-22 14:43 43.422586 -124.241281 291 15ft 14kts
13-Jan-22 14:44 43.410848 -124.271486 246 2530ft 95kts
13-Jan-22 14:45 43.412684 -124.322226 321 4769ft 190kts
13-Jan-22 14:46 43.438915 -124.270303 104 8297ft 249kts
13-Jan-22 14:47 43.413229 -124.175396 109 11969ft 285kts
13-Jan-22 14:48 43.440126 -124.104414 333 15874ft 227kts
13-Jan-22 14:49 43.505515 -124.117953 10 19321ft 299kts
13-Jan-22 14:50 43.583347 -124.070625 14 22359ft 323kts
13-Jan-22 14:51 43.669866 -124.015523 15 22343ft 350kts
13-Jan-22 14:52 43.760269 -123.960044 15 22316ft 359kts
13-Jan-22 14:53 43.852205 -123.904522 15 22293ft 363kts
13-Jan-22 14:54 43.945117 -123.848235 14 24165ft 362kts
13-Jan-22 14:55 44.037810 -123.793943 14 25844ft 366kts
13-Jan-22 14:56 44.123334 -123.741139 10 23281ft 318kts
13-Jan-22 14:57 44.203453 -123.692147 14 20001ft 310kts
13-Jan-22 14:58 44.281204 -123.645084 14 17087ft 301kts
13-Jan-22 14:59 44.357782 -123.599739 14 16835ft 298kts
13-Jan-22 15:00 44.434434 -123.552653 16 15807ft 301kts
13-Jan-22 15:01 44.510455 -123.505935 17 14518ft 297kts
13-Jan-22 15:02 44.591284 -123.456498 18 13525ft 329kts
13-Jan-22 15:03 44.674543 -123.404689 18 12879ft 327kts
13-Jan-22 15:04 44.757739 -123.353009 19 11747ft 324kts
13-Jan-22 15:05 44.839180 -123.302015 20 11620ft 316kts
13-Jan-22 15:06 44.919004 -123.252082 20 11621ft 311kts
13-Jan-22 15:07 44.997762 -123.202747 20 11631ft 311kts
13-Jan-22 15:08 45.078410 -123.152221 20 11639ft 321kts
13-Jan-22 15:09 45.160683 -123.100456 21 11618ft 325kts
13-Jan-22 15:10 45.240317 -123.049897 20 11617ft 302kts
13-Jan-22 15:11 45.315196 -123.002333 20 11621ft 293kts
13-Jan-22 15:12 45.391801 -122.963537 6 10665ft 291kts
13-Jan-22 15:13 45.471065 -122.946583 4 7847ft 283kts
13-Jan-22 15:14 45.547746 -122.930370 5 5435ft 268kts
13-Jan-22 15:15 45.615918 -122.915841 5 4385ft 229kts
13-Jan-22 15:16 45.679056 -122.904050 6 2880ft 220kts
13-Jan-22 15:17 45.694026 -122.854820 115 2839ft 129kts
13-Jan-22 15:18 45.679814 -122.813000 125 2836ft 136kts
13-Jan-22 15:19 45.659233 -122.760330 123 1814ft 145kts
13-Jan-22 15:20 45.641627 -122.715486 125 1774ft 123kts
13-Jan-22 15:21 45.625253 -122.673724 121 1274ft 107kts
13-Jan-22 15:22 45.611300 -122.636678 118 714ft 113kts
13-Jan-22 15:23 45.595896 -122.598480 118 112ft 108kts
13-Jan-22 15:24 45.588285 -122.582298 160 35ft 4kts
13-Jan-22 15:25 45.586581 -122.577742 118 36ft 19kts
13-Jan-22 15:26 45.584636 -122.577171 207 32ft 0kts

Navigation Log

Ident Type
Flight plan parsing failed, navigation log unavailable